createdAt,value
2023-04-10T00:00:14.183Z,548.3846
2023-04-10T00:01:17.151Z,546.7692
2023-04-10T00:02:20.189Z,544.3077
2023-04-10T00:03:23.088Z,540.5385
2023-04-10T00:04:26.076Z,538.0769
2023-04-10T00:05:29.022Z,540.8461
2023-04-10T00:06:31.899Z,541.3846
2023-04-10T00:07:34.833Z,542.9231
2023-04-10T00:08:37.801Z,541.4615
2023-04-10T00:09:40.736Z,541.3846
2023-04-10T00:10:43.685Z,542.6154
2023-04-10T00:11:46.627Z,544.0769
2023-04-10T00:12:49.612Z,547.1539
2023-04-10T00:13:52.917Z,553.8461
2023-04-10T00:14:55.492Z,563.0769
2023-04-10T00:15:58.432Z,563.6923
2023-04-10T00:17:01.584Z,561.6154
2023-04-10T00:18:04.412Z,557.7692
2023-04-10T00:19:07.322Z,554.0769
2023-04-10T00:20:10.234Z,557.1539
2023-04-10T00:21:13.210Z,558.6154
2023-04-10T00:22:16.143Z,558.9231
2023-04-10T00:23:19.114Z,555.6923
2023-04-10T00:24:22.087Z,552.3077
2023-04-10T00:25:24.987Z,552.0000
2023-04-10T00:26:28.037Z,551.4615
2023-04-10T00:27:30.895Z,552.3077
2023-04-10T00:28:33.864Z,552.6923
2023-04-10T00:29:36.810Z,554.3077
2023-04-10T00:30:39.748Z,557.6923
2023-04-10T00:31:42.757Z,558.0000
2023-04-10T00:32:45.773Z,558.8461
2023-04-10T00:33:48.621Z,560.7692
2023-04-10T00:34:51.563Z,562.4615
2023-04-10T00:35:54.555Z,563.3846
2023-04-10T00:36:57.502Z,562.0769
2023-04-10T00:38:00.425Z,564.0000
2023-04-10T00:39:03.386Z,572.2308
2023-04-10T00:40:06.326Z,578.5385
2023-04-10T00:41:09.269Z,579.0769
2023-04-10T00:42:12.259Z,576.7692
2023-04-10T00:43:15.220Z,570.6923
2023-04-10T00:44:18.129Z,566.0000
2023-04-10T00:45:21.078Z,563.1539
2023-04-10T00:46:24.072Z,558.3077
2023-04-10T00:47:27.011Z,559.0000
2023-04-10T00:48:29.957Z,559.7692
2023-04-10T00:49:32.884Z,559.5385
2023-04-10T00:50:35.847Z,563.3077
2023-04-10T00:51:38.804Z,563.3077
2023-04-10T00:52:41.874Z,558.3077
2023-04-10T00:53:44.721Z,561.8461
2023-04-10T00:54:47.666Z,565.4615
2023-04-10T00:55:50.622Z,567.7692
2023-04-10T00:56:53.819Z,568.4615
2023-04-10T00:57:56.630Z,568.8461
2023-04-10T00:58:59.498Z,568.0000
2023-04-10T01:00:02.429Z,567.8461
2023-04-10T01:01:05.506Z,569.2308
2023-04-10T01:02:08.433Z,571.6923
2023-04-10T01:03:11.435Z,578.0000
2023-04-10T01:04:14.368Z,585.5385
2023-04-10T01:05:17.204Z,591.3846
2023-04-10T01:06:20.163Z,580.6923
2023-04-10T01:07:23.178Z,573.9231
2023-04-10T01:08:26.071Z,570.4615
2023-04-10T01:09:29.062Z,567.2308
2023-04-10T01:10:31.996Z,568.1539
2023-04-10T01:11:34.962Z,567.6154
2023-04-10T01:12:37.887Z,564.3846
2023-04-10T01:13:40.854Z,562.8461
2023-04-10T01:14:43.824Z,563.4615
2023-04-10T01:15:46.761Z,562.6923
2023-04-10T01:16:49.865Z,559.0769
2023-04-10T01:17:52.716Z,557.6923
2023-04-10T01:18:55.642Z,558.2308
2023-04-10T01:19:58.637Z,557.9231
2023-04-10T01:21:01.537Z,557.4615
2023-04-10T01:22:04.510Z,555.0769
2023-04-10T01:23:07.459Z,550.3846
2023-04-10T01:24:10.455Z,547.3077
2023-04-10T01:25:13.408Z,547.6154
2023-04-10T01:26:16.349Z,547.0000
2023-04-10T01:27:19.392Z,545.6154
2023-04-10T01:28:22.250Z,546.3846
2023-04-10T01:29:25.230Z,550.6154
2023-04-10T01:30:28.148Z,553.3077
2023-04-10T01:31:31.093Z,550.6154
2023-04-10T01:32:34.084Z,546.8461
2023-04-10T01:33:36.998Z,543.0000
2023-04-10T01:34:40.156Z,538.0000
2023-04-10T01:35:42.929Z,536.3077
2023-04-10T01:36:45.895Z,534.5385
2023-04-10T01:37:48.831Z,534.8461
2023-04-10T01:38:51.858Z,533.3077
2023-04-10T01:39:54.738Z,531.4615
2023-04-10T01:40:57.701Z,535.4615
2023-04-10T01:42:00.670Z,544.7692
2023-04-10T01:43:03.609Z,552.6154
2023-04-10T01:44:06.563Z,550.2308
2023-04-10T01:45:09.515Z,553.0000
2023-04-10T01:46:12.483Z,557.9231
2023-04-10T01:47:15.562Z,558.9231
2023-04-10T01:48:18.375Z,561.6923
2023-04-10T01:49:21.320Z,561.9231
2023-04-10T01:50:24.290Z,562.0000
2023-04-10T01:51:27.220Z,561.9231
2023-04-10T01:52:30.224Z,559.0000
2023-04-10T01:53:33.131Z,553.4615
2023-04-10T01:54:36.076Z,548.0769
2023-04-10T01:55:39.039Z,547.5385
2023-04-10T01:56:41.987Z,550.8461
2023-04-10T01:57:44.990Z,549.0000
2023-04-10T01:58:47.902Z,548.8461
2023-04-10T01:59:50.876Z,548.3846
2023-04-10T02:00:53.902Z,548.5385
2023-04-10T02:01:56.810Z,548.8461
2023-04-10T02:02:59.897Z,548.1539
2023-04-10T02:04:02.762Z,546.0000
2023-04-10T02:05:05.755Z,548.2308
2023-04-10T02:06:08.582Z,551.6154
2023-04-10T02:07:11.571Z,554.9231
2023-04-10T02:08:14.516Z,561.7692
2023-04-10T02:09:17.436Z,566.8461
2023-04-10T02:10:20.393Z,564.5385
2023-04-10T02:11:23.364Z,565.2308
2023-04-10T02:12:26.304Z,564.3846
2023-04-10T02:13:29.255Z,561.1539
2023-04-10T02:14:32.199Z,558.0000
2023-04-10T02:15:35.260Z,557.3846
2023-04-10T02:16:38.208Z,558.3846
2023-04-10T02:17:41.072Z,559.7692
2023-04-10T02:18:44.000Z,559.3077
2023-04-10T02:19:46.967Z,558.2308
2023-04-10T02:20:49.966Z,556.2308
2023-04-10T02:21:53.002Z,553.5385
2023-04-10T02:22:55.813Z,552.6154
2023-04-10T02:23:58.795Z,551.8461
2023-04-10T02:25:01.744Z,550.1539
2023-04-10T02:26:04.680Z,551.6923
2023-04-10T02:27:07.637Z,554.0000
2023-04-10T02:28:10.642Z,553.4615
2023-04-10T02:29:13.532Z,550.7692
2023-04-10T02:30:16.567Z,547.8461
2023-04-10T02:31:19.448Z,546.7692
2023-04-10T02:32:22.413Z,546.6923
2023-04-10T02:33:25.344Z,545.9231
2023-04-10T02:34:28.291Z,546.4615
2023-04-10T02:35:31.337Z,549.5385
2023-04-10T02:36:34.229Z,553.9231
2023-04-10T02:37:37.233Z,557.3846
2023-04-10T02:38:40.102Z,561.0000
2023-04-10T02:39:43.063Z,559.0769
2023-04-10T02:40:46.016Z,560.3077
2023-04-10T02:41:48.997Z,565.4615
2023-04-10T02:42:51.977Z,573.6923
2023-04-10T02:43:54.926Z,575.6154
2023-04-10T02:44:57.822Z,570.7692
2023-04-10T02:46:00.785Z,566.2308
2023-04-10T02:47:03.750Z,561.0769
2023-04-10T02:48:06.872Z,556.6154
2023-04-10T02:49:09.693Z,557.0769
2023-04-10T02:50:12.599Z,556.3846
2023-04-10T02:51:15.569Z,556.3846
2023-04-10T02:52:18.488Z,553.6923
2023-04-10T02:53:21.451Z,553.0000
2023-04-10T02:54:24.525Z,551.0769
2023-04-10T02:55:27.391Z,554.1539
2023-04-10T02:56:30.304Z,555.1539
2023-04-10T02:57:33.259Z,557.5385
2023-04-10T02:58:36.212Z,559.2308
2023-04-10T02:59:39.212Z,562.4615
2023-04-10T03:00:42.138Z,563.8461
2023-04-10T03:01:45.255Z,564.9231
2023-04-10T03:02:48.220Z,564.6923
2023-04-10T03:03:51.067Z,565.7692
2023-04-10T03:04:54.040Z,566.4615
2023-04-10T03:05:56.920Z,563.8461
2023-04-10T03:06:59.833Z,564.0000
2023-04-10T03:08:02.806Z,564.0769
2023-04-10T03:09:05.734Z,562.0769
2023-04-10T03:10:08.710Z,560.7692
2023-04-10T03:11:11.645Z,558.6154
2023-04-10T03:12:14.622Z,559.3846
2023-04-10T03:13:17.546Z,563.6923
2023-04-10T03:14:20.499Z,564.7692
2023-04-10T03:15:23.447Z,564.3077
2023-04-10T03:16:26.532Z,564.0769
2023-04-10T03:17:29.420Z,565.4615
2023-04-10T03:18:32.321Z,564.3077
2023-04-10T03:19:35.280Z,565.8461
2023-04-10T03:20:38.236Z,563.8461
2023-04-10T03:21:41.204Z,567.9231
2023-04-10T03:22:44.135Z,571.0769
2023-04-10T03:23:47.086Z,569.3077
2023-04-10T03:24:50.038Z,566.0000
2023-04-10T03:25:52.989Z,566.0769
2023-04-10T03:26:55.951Z,563.8461
2023-04-10T03:27:58.995Z,562.3846
2023-04-10T03:29:01.994Z,559.9231
2023-04-10T03:30:04.870Z,558.6923
2023-04-10T03:31:07.845Z,557.9231
2023-04-10T03:32:10.794Z,552.0000
2023-04-10T03:33:13.785Z,547.9231
2023-04-10T03:34:16.777Z,546.8461
2023-04-10T03:35:19.744Z,546.4615
2023-04-10T03:36:22.623Z,550.6154
2023-04-10T03:37:25.558Z,556.0769
2023-04-10T03:38:28.507Z,561.3077
2023-04-10T03:39:31.502Z,559.6154
2023-04-10T03:40:34.429Z,558.8461
2023-04-10T03:41:37.366Z,559.5385
2023-04-10T03:42:40.324Z,560.1539
2023-04-10T03:43:43.275Z,561.3846
2023-04-10T03:44:46.225Z,564.3077
2023-04-10T03:45:49.173Z,566.7692
2023-04-10T03:46:52.239Z,568.7692
2023-04-10T03:47:55.106Z,568.9231
2023-04-10T03:48:58.032Z,568.3077
2023-04-10T03:50:00.993Z,568.7692
2023-04-10T03:51:03.967Z,569.6154
2023-04-10T03:52:06.886Z,569.3077
2023-04-10T03:53:09.866Z,570.8461
2023-04-10T03:54:13.041Z,571.3077
2023-04-10T03:55:15.731Z,568.7692
2023-04-10T03:56:18.728Z,564.8461
2023-04-10T03:57:21.665Z,563.9231
2023-04-10T03:58:24.619Z,562.0000
2023-04-10T03:59:37.966Z,557.1539
2023-04-10T04:00:30.501Z,555.6154
2023-04-10T04:01:33.550Z,555.7692
2023-04-10T04:02:36.475Z,555.3077
2023-04-10T04:03:39.471Z,555.2308
2023-04-10T04:04:42.496Z,556.0000
2023-04-10T04:05:45.286Z,553.1539
2023-04-10T04:06:48.221Z,553.4615
2023-04-10T04:07:51.164Z,556.9231
2023-04-10T04:08:54.118Z,595.6923
2023-04-10T04:09:57.103Z,596.4615
2023-04-10T04:11:00.033Z,585.8461
2023-04-10T04:12:02.987Z,578.7692
2023-04-10T04:13:05.948Z,576.6154
2023-04-10T04:14:08.941Z,571.5385
2023-04-10T04:15:11.860Z,569.4615
2023-04-10T04:16:14.824Z,567.6154
2023-04-10T04:17:17.781Z,563.6923
2023-04-10T04:18:20.717Z,564.6154
2023-04-10T04:19:23.683Z,569.0000
2023-04-10T04:20:26.670Z,571.2308
2023-04-10T04:21:29.596Z,572.7692
2023-04-10T04:22:32.529Z,573.0769
2023-04-10T04:23:35.517Z,572.0000
2023-04-10T04:24:38.470Z,567.8461
2023-04-10T04:25:41.409Z,564.4615
2023-04-10T04:26:44.367Z,560.6154
2023-04-10T04:27:47.318Z,553.7692
2023-04-10T04:28:50.301Z,550.1539
2023-04-10T04:29:53.224Z,548.9231
2023-04-10T04:30:56.189Z,547.6154
2023-04-10T04:31:59.199Z,545.3077
2023-04-10T04:33:02.162Z,544.3846
2023-04-10T04:34:05.062Z,544.4615
2023-04-10T04:35:08.000Z,545.2308
2023-04-10T04:36:10.984Z,546.0000
2023-04-10T04:37:13.893Z,547.0000
2023-04-10T04:38:16.897Z,549.0769
2023-04-10T04:39:19.808Z,549.3077
2023-04-10T04:40:22.763Z,549.6154
2023-04-10T04:41:25.721Z,547.2308
2023-04-10T04:42:28.671Z,544.3846
2023-04-10T04:43:31.719Z,547.3077
2023-04-10T04:44:34.597Z,551.3077
2023-04-10T04:45:37.553Z,548.2308
2023-04-10T04:46:41.954Z,549.3077
2023-04-10T04:47:43.472Z,548.6923
2023-04-10T04:48:46.424Z,551.3077
2023-04-10T04:49:49.396Z,554.1539
2023-04-10T04:50:52.568Z,556.9231
2023-04-10T04:51:55.275Z,565.6154
2023-04-10T04:52:58.245Z,580.0769
2023-04-10T04:54:01.178Z,586.9231
2023-04-10T04:55:04.157Z,580.0769
2023-04-10T04:56:07.146Z,577.5385
2023-04-10T04:57:10.079Z,572.0000
2023-04-10T04:58:13.011Z,570.0769
2023-04-10T04:59:15.974Z,570.6923
2023-04-10T05:00:18.919Z,569.5385
2023-04-10T05:01:21.919Z,568.6154
2023-04-10T05:02:24.978Z,570.8461
2023-04-10T05:03:28.014Z,570.3077
2023-04-10T05:04:30.798Z,573.5385
2023-04-10T05:05:33.703Z,575.5385
2023-04-10T05:06:36.770Z,573.3077
2023-04-10T05:07:39.668Z,571.5385
2023-04-10T05:08:42.545Z,569.6923
2023-04-10T05:09:45.511Z,565.0769
2023-04-10T05:10:48.464Z,563.5385
2023-04-10T05:11:51.417Z,565.9231
2023-04-10T05:12:54.493Z,565.4615
2023-04-10T05:13:57.325Z,563.2308
2023-04-10T05:15:04.246Z,561.6923
2023-04-10T05:16:04.834Z,562.0000
2023-04-10T05:17:06.177Z,560.8461
2023-04-10T05:18:09.233Z,560.6923
2023-04-10T05:19:12.092Z,561.6923
2023-04-10T05:20:15.081Z,561.4615
2023-04-10T05:21:18.001Z,563.2308
2023-04-10T05:22:20.979Z,562.6923
2023-04-10T05:23:24.039Z,560.9231
2023-04-10T05:24:26.866Z,560.9231
2023-04-10T05:25:29.817Z,562.3077
2023-04-10T05:26:32.817Z,562.0000
2023-04-10T05:27:35.750Z,560.0769
2023-04-10T05:28:38.743Z,561.3077
2023-04-10T05:29:41.670Z,559.4615
2023-04-10T05:30:44.658Z,561.0769
2023-04-10T05:31:47.562Z,566.7692
2023-04-10T05:32:50.551Z,571.3846
2023-04-10T05:33:53.471Z,573.9231
2023-04-10T05:34:56.446Z,576.3077
2023-04-10T05:35:59.455Z,577.0000
2023-04-10T05:37:02.340Z,575.0000
2023-04-10T05:38:05.309Z,573.2308
2023-04-10T05:39:08.257Z,572.6154
2023-04-10T05:40:11.237Z,573.7692
2023-04-10T05:41:14.316Z,575.9231
2023-04-10T05:42:17.346Z,577.8461
2023-04-10T05:43:20.080Z,579.0000
2023-04-10T05:44:23.019Z,579.6923
2023-04-10T05:45:25.983Z,577.0000
2023-04-10T05:46:29.038Z,576.4615
2023-04-10T05:47:31.928Z,573.7692
2023-04-10T05:48:35.028Z,571.2308
2023-04-10T05:49:37.849Z,568.5385
2023-04-10T05:50:40.758Z,563.7692
2023-04-10T05:51:43.765Z,563.0000
2023-04-10T05:52:46.831Z,568.5385
2023-04-10T05:53:49.632Z,570.3846
2023-04-10T05:54:52.596Z,569.9231
2023-04-10T05:55:55.542Z,568.4615
2023-04-10T05:56:58.496Z,568.3077
2023-04-10T05:58:01.502Z,568.3846
2023-04-10T05:59:04.420Z,567.7692
2023-04-10T06:00:07.385Z,561.9231
2023-04-10T06:01:10.356Z,558.2308
2023-04-10T06:02:13.413Z,551.9231
2023-04-10T06:03:16.360Z,552.0000
2023-04-10T06:04:19.368Z,553.3077
2023-04-10T06:05:22.270Z,554.0769
2023-04-10T06:06:25.099Z,555.2308
2023-04-10T06:07:28.073Z,558.2308
2023-04-10T06:08:31.043Z,558.6154
2023-04-10T06:09:33.970Z,556.3077
2023-04-10T06:10:36.929Z,555.0000
2023-04-10T06:11:39.864Z,562.9231
2023-04-10T06:12:42.823Z,569.0000
2023-04-10T06:13:45.806Z,571.0000
2023-04-10T06:14:48.737Z,575.8461
2023-04-10T06:15:51.713Z,582.0769
2023-04-10T06:16:54.659Z,584.6154
2023-04-10T06:17:57.667Z,585.0769
2023-04-10T06:19:00.556Z,583.1539
2023-04-10T06:20:03.497Z,577.6923
2023-04-10T06:21:06.474Z,571.6923
2023-04-10T06:22:09.490Z,568.0000
2023-04-10T06:23:12.356Z,564.0769
2023-04-10T06:24:15.312Z,559.1539
2023-04-10T06:25:18.296Z,555.5385
2023-04-10T06:26:21.226Z,552.6923
2023-04-10T06:27:24.191Z,552.6154
2023-04-10T06:28:27.124Z,551.5385
2023-04-10T06:29:30.135Z,549.8461
2023-04-10T06:30:33.048Z,549.4615
2023-04-10T06:31:36.085Z,546.6154
2023-04-10T06:32:38.971Z,540.3077
2023-04-10T06:33:41.896Z,537.2308
2023-04-10T06:34:44.857Z,535.0000
2023-04-10T06:35:47.833Z,533.1539
2023-04-10T06:36:50.752Z,535.5385
2023-04-10T06:37:53.728Z,535.7692
2023-04-10T06:38:56.709Z,534.2308
2023-04-10T06:39:59.635Z,530.7692
2023-04-10T06:41:02.587Z,530.1539
2023-04-10T06:42:05.650Z,532.6923
2023-04-10T06:43:08.794Z,531.8461
2023-04-10T06:44:11.522Z,534.6923
2023-04-10T06:45:14.403Z,533.0769
2023-04-10T06:46:17.353Z,531.9231
2023-04-10T06:47:20.307Z,532.5385
2023-04-10T06:48:23.288Z,534.4615
2023-04-10T06:49:26.250Z,533.1539
2023-04-10T06:50:29.883Z,531.4615
2023-04-10T06:51:32.075Z,529.5385
2023-04-10T06:52:35.032Z,528.6923
2023-04-10T06:53:37.994Z,524.7692
2023-04-10T06:54:40.931Z,521.0769
2023-04-10T06:55:43.914Z,523.3846
2023-04-10T06:56:46.860Z,522.0000
2023-04-10T06:57:49.816Z,520.1539
2023-04-10T06:58:52.874Z,517.9231
2023-04-10T06:59:55.716Z,518.3077
2023-04-10T07:00:58.747Z,518.1539
2023-04-10T07:02:01.656Z,515.6923
2023-04-10T07:03:04.682Z,516.4615
2023-04-10T07:04:07.647Z,516.7692
2023-04-10T07:05:10.517Z,513.2308
2023-04-10T07:06:13.477Z,512.8461
2023-04-10T07:07:16.366Z,512.5385
2023-04-10T07:08:19.398Z,512.3077
2023-04-10T07:09:22.288Z,509.6923
2023-04-10T07:10:25.291Z,509.0769
2023-04-10T07:11:28.175Z,515.2308
2023-04-10T07:12:31.172Z,516.6923
2023-04-10T07:13:34.181Z,515.8461
2023-04-10T07:14:37.044Z,514.0000
2023-04-10T07:15:39.980Z,509.0769
2023-04-10T07:16:42.969Z,508.9231
2023-04-10T07:17:45.961Z,509.0000
2023-04-10T07:18:48.817Z,506.4615
2023-04-10T07:19:51.758Z,505.6154
2023-04-10T07:20:54.711Z,507.4615
2023-04-10T07:21:57.670Z,508.3846
2023-04-10T07:23:00.793Z,504.7692
2023-04-10T07:24:03.554Z,495.6154
2023-04-10T07:25:06.517Z,504.7692
2023-04-10T07:26:09.497Z,499.6923
2023-04-10T07:27:12.410Z,489.6923
2023-04-10T07:28:15.357Z,493.4615
2023-04-10T07:29:18.300Z,493.6923
2023-04-10T07:30:21.238Z,493.6923
2023-04-10T07:31:24.289Z,496.6154
2023-04-10T07:32:27.343Z,495.9231
2023-04-10T07:33:30.087Z,491.0769
2023-04-10T07:34:33.009Z,492.0769
2023-04-10T07:35:36.089Z,496.9231
2023-04-10T07:36:38.975Z,497.0769
2023-04-10T07:37:41.925Z,496.3077
2023-04-10T07:38:44.880Z,495.8462
2023-04-10T07:39:47.832Z,493.6923
2023-04-10T07:40:50.819Z,489.3846
2023-04-10T07:41:53.713Z,488.8462
2023-04-10T07:42:56.646Z,491.0000
2023-04-10T07:43:59.785Z,486.9231
2023-04-10T07:45:02.551Z,488.2308
2023-04-10T07:46:05.519Z,479.8462
2023-04-10T07:47:08.431Z,477.3846
2023-04-10T07:48:11.380Z,481.1538
2023-04-10T07:49:14.567Z,486.3077
2023-04-10T07:50:17.294Z,482.4615
2023-04-10T07:51:20.218Z,483.7692
2023-04-10T07:52:23.198Z,483.1538
2023-04-10T07:53:26.119Z,484.3077
2023-04-10T07:54:29.073Z,473.1538
2023-04-10T07:55:32.004Z,477.9231
2023-04-10T07:56:35.014Z,477.0769
2023-04-10T07:57:37.937Z,481.0769
2023-04-10T07:58:40.856Z,481.9231
2023-04-10T07:59:43.807Z,480.6154
2023-04-10T08:00:46.797Z,476.3077
2023-04-10T08:01:49.823Z,477.5385
2023-04-10T08:02:52.789Z,481.1538
2023-04-10T08:03:55.751Z,483.1538
2023-04-10T08:04:58.766Z,474.9231
2023-04-10T08:06:01.508Z,475.0000
2023-04-10T08:07:04.505Z,476.0000
2023-04-10T08:08:07.389Z,476.0000
2023-04-10T08:09:10.392Z,479.0769
2023-04-10T08:10:13.298Z,482.1538
2023-04-10T08:11:16.252Z,483.7692
2023-04-10T08:12:19.186Z,470.2308
2023-04-10T08:13:22.130Z,483.0769
2023-04-10T08:14:25.091Z,469.6923
2023-04-10T08:15:28.015Z,474.7692
2023-04-10T08:16:31.030Z,468.0769
2023-04-10T08:17:33.936Z,484.4615
2023-04-10T08:18:36.875Z,468.0769
2023-04-10T08:19:39.816Z,465.0769
2023-04-10T08:20:42.767Z,467.6923
2023-04-10T08:21:45.732Z,477.0000
2023-04-10T08:22:48.672Z,474.3846
2023-04-10T08:23:51.627Z,459.0769
2023-04-10T08:24:54.564Z,467.4615
2023-04-10T08:25:57.623Z,472.8462
2023-04-10T08:27:00.461Z,482.9231
2023-04-10T08:28:03.514Z,451.4615
2023-04-10T08:29:06.392Z,459.9231
2023-04-10T08:30:09.329Z,465.6154
2023-04-10T08:31:12.376Z,468.0000
2023-04-10T08:32:15.238Z,470.8462
2023-04-10T08:33:18.188Z,474.3077
2023-04-10T08:34:21.129Z,479.1538
2023-04-10T08:35:24.141Z,467.9231
2023-04-10T08:36:27.119Z,474.6923
2023-04-10T08:37:29.973Z,466.4615
2023-04-10T08:38:32.920Z,472.1538
2023-04-10T08:39:35.854Z,466.0769
2023-04-10T08:40:38.842Z,471.7692
2023-04-10T08:41:41.750Z,477.5385
2023-04-10T08:42:44.700Z,472.8462
2023-04-10T08:43:47.643Z,465.1538
2023-04-10T08:44:50.597Z,466.3077
2023-04-10T08:45:53.576Z,468.5385
2023-04-10T08:46:56.545Z,464.1538
2023-04-10T08:47:59.449Z,456.3077
2023-04-10T08:49:02.475Z,465.3077
2023-04-10T08:50:05.318Z,468.8462
2023-04-10T08:51:10.790Z,471.3077
2023-04-10T08:52:11.214Z,466.1538
2023-04-10T08:53:14.184Z,468.2308
2023-04-10T08:54:17.150Z,472.9231
2023-04-10T08:55:20.111Z,470.8462
2023-04-10T08:56:23.011Z,474.0000
2023-04-10T08:57:25.957Z,466.7692
2023-04-10T08:58:28.895Z,469.0000
2023-04-10T08:59:31.853Z,468.6154
2023-04-10T09:00:35.100Z,467.5385
2023-04-10T09:01:37.851Z,456.3077
2023-04-10T09:02:42.571Z,458.9231
2023-04-10T09:03:43.827Z,464.6923
2023-04-10T09:04:46.726Z,464.7692
2023-04-10T09:05:49.596Z,463.6154
2023-04-10T09:06:52.574Z,464.3077
2023-04-10T09:07:55.491Z,482.8462
2023-04-10T09:08:58.584Z,481.9231
2023-04-10T09:10:01.453Z,464.6154
2023-04-10T09:11:04.331Z,465.9231
2023-04-10T09:12:07.300Z,462.6923
2023-04-10T09:13:10.440Z,465.5385
2023-04-10T09:14:13.191Z,459.8462
2023-04-10T09:15:16.202Z,467.0000
2023-04-10T09:16:19.157Z,453.4615
2023-04-10T09:17:22.101Z,454.2308
2023-04-10T09:18:25.036Z,460.8462
2023-04-10T09:19:27.966Z,463.3846
2023-04-10T09:20:30.945Z,465.0769
2023-04-10T09:21:33.886Z,465.8462
2023-04-10T09:22:36.862Z,464.7692
2023-04-10T09:23:39.843Z,462.6923
2023-04-10T09:24:42.746Z,464.9231
2023-04-10T09:25:45.692Z,468.3077
2023-04-10T09:26:48.717Z,471.6154
2023-04-10T09:27:51.615Z,471.2308
2023-04-10T09:28:54.626Z,463.3846
2023-04-10T09:29:57.502Z,463.4615
2023-04-10T09:31:00.512Z,463.6923
2023-04-10T09:32:03.394Z,467.6923
2023-04-10T09:33:06.631Z,468.1538
2023-04-10T09:34:09.324Z,460.7692
2023-04-10T09:35:12.265Z,454.2308
2023-04-10T09:36:15.239Z,459.6923
2023-04-10T09:37:18.176Z,462.7692
2023-04-10T09:38:21.130Z,471.4615
2023-04-10T09:39:24.166Z,445.6923
2023-04-10T09:40:27.053Z,451.5385
2023-04-10T09:41:29.976Z,447.8462
2023-04-10T09:42:32.923Z,449.3846
2023-04-10T09:43:35.937Z,442.2308
2023-04-10T09:44:38.861Z,444.6923
2023-04-10T09:45:41.802Z,464.0769
2023-04-10T09:46:44.800Z,449.1538
2023-04-10T09:47:47.747Z,446.3846
2023-04-10T09:48:50.667Z,453.2308
2023-04-10T09:49:53.654Z,452.4615
2023-04-10T09:50:56.573Z,455.2308
2023-04-10T09:51:59.518Z,450.3846
2023-04-10T09:53:02.577Z,455.0769
2023-04-10T09:54:05.445Z,459.0769
2023-04-10T09:55:08.394Z,459.2308
2023-04-10T09:56:11.420Z,452.0000
2023-04-10T09:57:14.284Z,453.3077
2023-04-10T09:58:17.240Z,457.4615
2023-04-10T09:59:20.197Z,457.6923
2023-04-10T10:00:23.220Z,457.3846
2023-04-10T10:01:26.077Z,461.2308
2023-04-10T10:02:29.179Z,443.7692
2023-04-10T10:03:32.061Z,442.3846
2023-04-10T10:04:34.963Z,448.6154
2023-04-10T10:05:37.879Z,449.6154
2023-04-10T10:06:40.868Z,457.7692
2023-04-10T10:07:43.866Z,454.3077
2023-04-10T10:08:46.948Z,451.5385
2023-04-10T10:09:49.666Z,453.6154
2023-04-10T10:10:52.610Z,443.3846
2023-04-10T10:11:55.562Z,443.9231
2023-04-10T10:12:58.528Z,445.2308
2023-04-10T10:14:01.435Z,447.8462
2023-04-10T10:15:04.434Z,452.8462
2023-04-10T10:16:07.384Z,450.6923
2023-04-10T10:17:10.299Z,447.2308
2023-04-10T10:18:13.247Z,448.3846
2023-04-10T10:19:16.218Z,446.8462
2023-04-10T10:20:19.145Z,453.1538
2023-04-10T10:21:22.097Z,447.7692
2023-04-10T10:22:25.029Z,448.6154
2023-04-10T10:23:28.065Z,450.3077
2023-04-10T10:24:31.100Z,449.3077
2023-04-10T10:25:33.907Z,449.1538
2023-04-10T10:26:37.000Z,445.6923
2023-04-10T10:27:39.821Z,440.6923
2023-04-10T10:28:42.697Z,441.8462
2023-04-10T10:29:45.684Z,441.9231
2023-04-10T10:30:48.594Z,440.5385
2023-04-10T10:31:51.679Z,438.0769
2023-04-10T10:32:54.511Z,438.1538
2023-04-10T10:33:57.466Z,438.1538
2023-04-10T10:35:00.399Z,430.3077
2023-04-10T10:36:03.469Z,438.6923
2023-04-10T10:37:06.496Z,439.6154
2023-04-10T10:38:09.245Z,442.8462
2023-04-10T10:39:12.183Z,443.0000
2023-04-10T10:40:15.146Z,443.3077
2023-04-10T10:41:18.082Z,443.7692
2023-04-10T10:42:21.029Z,443.7692
2023-04-10T10:43:23.991Z,444.4615
2023-04-10T10:44:26.943Z,444.8462
2023-04-10T10:45:29.950Z,446.0769
2023-04-10T10:46:32.819Z,445.1538
2023-04-10T10:47:35.772Z,441.3077
2023-04-10T10:48:38.840Z,438.0769
2023-04-10T10:49:41.656Z,437.3077
2023-04-10T10:50:44.630Z,437.5385
2023-04-10T10:51:47.543Z,434.6154
2023-04-10T10:52:50.514Z,435.9231
2023-04-10T10:53:53.514Z,436.7692
2023-04-10T10:54:59.686Z,436.8462
2023-04-10T10:55:59.444Z,437.3846
2023-04-10T10:57:02.296Z,436.6923
2023-04-10T10:58:05.245Z,446.6923
2023-04-10T10:59:08.192Z,445.0000
2023-04-10T11:00:11.157Z,441.7692
2023-04-10T11:01:14.176Z,447.0000
2023-04-10T11:02:17.202Z,435.0000
2023-04-10T11:03:20.118Z,448.7692
2023-04-10T11:04:22.947Z,426.3846
2023-04-10T11:05:25.885Z,433.9231
2023-04-10T11:06:28.870Z,436.4615
2023-04-10T11:07:31.790Z,436.9231
2023-04-10T11:08:34.739Z,435.3077
2023-04-10T11:09:37.864Z,435.6923
2023-04-10T11:10:40.668Z,435.0000
2023-04-10T11:11:43.668Z,434.1538
2023-04-10T11:12:46.553Z,435.6154
2023-04-10T11:13:49.490Z,436.6154
2023-04-10T11:14:52.470Z,431.5385
2023-04-10T11:15:55.379Z,433.7692
2023-04-10T11:16:58.522Z,433.6154
2023-04-10T11:18:01.298Z,430.9231
2023-04-10T11:19:14.050Z,431.8462
2023-04-10T11:20:07.270Z,436.8462
2023-04-10T11:21:10.166Z,434.8462
2023-04-10T11:22:13.276Z,432.7692
2023-04-10T11:23:16.042Z,434.0769
2023-04-10T11:24:19.155Z,436.3077
2023-04-10T11:25:21.957Z,440.6154
2023-04-10T11:26:24.895Z,441.6154
2023-04-10T11:27:27.871Z,441.6923
2023-04-10T11:28:30.820Z,444.3846
2023-04-10T11:29:33.762Z,442.3077
2023-04-10T11:30:36.986Z,433.6154
2023-04-10T11:31:39.969Z,437.0769
2023-04-10T11:32:42.646Z,441.6923
2023-04-10T11:33:45.588Z,427.1538
2023-04-10T11:34:48.547Z,431.0000
2023-04-10T11:35:51.560Z,432.7692
2023-04-10T11:36:54.435Z,434.6154
2023-04-10T11:37:57.409Z,434.3846
2023-04-10T11:39:00.444Z,435.5385
2023-04-10T11:40:03.306Z,436.6923
2023-04-10T11:41:06.215Z,438.0769
2023-04-10T11:42:09.168Z,432.6923
2023-04-10T11:43:12.202Z,431.0000
2023-04-10T11:44:15.168Z,422.9231
2023-04-10T11:45:18.089Z,427.2308
2023-04-10T11:46:21.149Z,430.4615
2023-04-10T11:47:24.008Z,430.5385
2023-04-10T11:48:26.924Z,429.1538
2023-04-10T11:49:29.945Z,427.3077
2023-04-10T11:50:32.832Z,430.8462
2023-04-10T11:51:35.778Z,430.2308
2023-04-10T11:52:38.732Z,432.4615
2023-04-10T11:53:41.722Z,434.9231
2023-04-10T11:54:44.618Z,434.6923
2023-04-10T11:55:47.556Z,437.8462
2023-04-10T11:56:50.515Z,439.2308
2023-04-10T11:57:53.460Z,433.3077
2023-04-10T11:58:56.763Z,429.3077
2023-04-10T11:59:59.369Z,427.0000
2023-04-10T12:01:02.408Z,429.1538
2023-04-10T12:02:05.374Z,432.1538
2023-04-10T12:03:08.404Z,429.6923
2023-04-10T12:04:11.287Z,431.3077
2023-04-10T12:05:14.145Z,434.0000
2023-04-10T12:06:17.068Z,427.6154
2023-04-10T12:07:20.078Z,430.7692
2023-04-10T12:08:23.539Z,427.6154
2023-04-10T12:09:25.914Z,430.6154
2023-04-10T12:10:28.866Z,427.7692
2023-04-10T12:11:31.863Z,429.5385
2023-04-10T12:12:34.766Z,429.4615
2023-04-10T12:13:37.717Z,428.0769
2023-04-10T12:14:40.683Z,430.4615
2023-04-10T12:15:43.635Z,430.9231
2023-04-10T12:16:46.560Z,427.3846
2023-04-10T12:17:49.576Z,431.2308
2023-04-10T12:18:53.202Z,431.0000